PWSweather.com
Personal Weather Stations
Station Observations
KWIATHEL1
Marinette County, Athelstane, WI 54104

Marinette CountyAthelstane, WI 54104

Lat: 45.4, Lon: -88.12

Elevation: 960

Station Type: Acurite 5in1 Pro

http://weather.athelstanewi.com

Latest ConditionsUpdated 6:55:01 AM CDT Tuesday, May 31, 2016
Currently Today's Max Today's Min Today's Average
Temperature 50.0°F10.0°C 54.7°F12.6°C 47.3°F8.5°C 50.5°F10.3°C
Dew Point 45.4°F7.4°C 51.2°F10.7°C 45.0°F7.2°C 47.6°F8.7°C
Winds Calm Calm Calm ESECalm ESE - Calm Calm
Wind Gusts -- -- - -
Humidity 84% 94% 84% 90%
Pressure 30.10 in1019.3 mb 30.11 in1019.6 mb 30.00 in1015.9 mb -
Hour Temp Dew Point Humidity Winds Wind Gusts Pressure Precip Precip Rate Daily Precip Total
06:55 AM 50.0°F10.0°C 45.4°F7.4°C 84% Calm Calm -- 30.10 in1019.3 mb - 0.00 in0.0 mm 0.00 in0.0 mm
06:50 AM 49.6°F9.8°C 45.9°F7.7°C 87% Calm Calm -- 30.11 in1019.6 mb - 0.00 in0.0 mm 0.00 in0.0 mm
06:45 AM 49.3°F9.6°C 45.9°F7.7°C 88% Calm Calm -- 30.11 in1019.6 mb - 0.00 in0.0 mm 0.00 in0.0 mm
06:40 AM 48.9°F9.4°C 45.5°F7.5°C 88% Calm Calm -- 30.11 in1019.6 mb - 0.00 in0.0 mm 0.00 in0.0 mm
06:35 AM 48.7°F9.3°C 45.6°F7.6°C 89% Calm Calm -- 30.11 in1019.6 mb - 0.00 in0.0 mm 0.00 in0.0 mm
06:30 AM 48.6°F9.2°C 45.5°F7.5°C 89% Calm Calm -- 30.11 in1019.6 mb - 0.00 in0.0 mm 0.00 in0.0 mm
06:25 AM 48.4°F9.1°C 45.0°F7.2°C 88% Calm Calm -- 30.11 in1019.6 mb - 0.00 in0.0 mm 0.00 in0.0 mm
06:20 AM 48.3°F9.1°C 45.5°F7.5°C 90% Calm Calm -- 30.11 in1019.6 mb - 0.00 in0.0 mm 0.00 in0.0 mm
06:15 AM 48.2°F9.0°C 45.4°F7.4°C 90% Calm Calm -- 30.09 in1019.0 mb - 0.00 in0.0 mm 0.00 in0.0 mm
06:10 AM 48.0°F8.9°C 45.2°F7.3°C 90% Calm Calm -- 30.09 in1019.0 mb - 0.00 in0.0 mm 0.00 in0.0 mm
06:05 AM 48.0°F8.9°C 45.2°F7.3°C 90% Calm Calm -- 30.09 in1019.0 mb - 0.00 in0.0 mm 0.00 in0.0 mm
06:00 AM 48.0°F8.9°C 45.2°F7.3°C 90% Calm Calm -- 30.09 in1019.0 mb - 0.00 in0.0 mm 0.00 in0.0 mm
05:55 AM 47.8°F8.8°C 45.0°F7.2°C 90% Calm Calm -- 30.09 in1019.0 mb - 0.00 in0.0 mm 0.00 in0.0 mm
05:50 AM 47.8°F8.8°C 45.3°F7.4°C 91% Calm Calm -- 30.08 in1018.6 mb - 0.00 in0.0 mm 0.00 in0.0 mm
05:45 AM 47.6°F8.7°C 45.1°F7.3°C 91% Calm Calm -- 30.08 in1018.6 mb - 0.00 in0.0 mm 0.00 in0.0 mm
05:40 AM 47.5°F8.6°C 45.3°F7.4°C 92% Calm Calm -- 30.08 in1018.6 mb - 0.00 in0.0 mm 0.00 in0.0 mm
05:35 AM 47.5°F8.6°C 45.3°F7.4°C 92% Calm Calm -- 30.08 in1018.6 mb - 0.00 in0.0 mm 0.00 in0.0 mm
05:30 AM 47.5°F8.6°C 45.3°F7.4°C 92% Calm Calm -- 30.08 in1018.6 mb - 0.00 in0.0 mm 0.00 in0.0 mm
05:25 AM 47.5°F8.6°C 45.3°F7.4°C 92% Calm Calm -- 30.07 in1018.3 mb - 0.00 in0.0 mm 0.00 in0.0 mm
05:20 AM 47.5°F8.6°C 45.6°F7.6°C 93% Calm Calm -- 30.07 in1018.3 mb - 0.00 in0.0 mm 0.00 in0.0 mm
05:15 AM 47.5°F8.6°C 45.6°F7.6°C 93% Calm Calm -- 30.07 in1018.3 mb - 0.00 in0.0 mm 0.00 in0.0 mm
05:10 AM 47.5°F8.6°C 45.9°F7.7°C 94% Calm Calm -- 30.07 in1018.3 mb - 0.00 in0.0 mm 0.00 in0.0 mm
05:05 AM 47.3°F8.5°C 45.7°F7.6°C 94% Calm Calm -- 30.08 in1018.6 mb - 0.00 in0.0 mm 0.00 in0.0 mm
05:00 AM 47.3°F8.5°C 45.4°F7.4°C 93% Calm Calm -- 30.08 in1018.6 mb - 0.00 in0.0 mm 0.00 in0.0 mm
04:55 AM 47.6°F8.7°C 45.7°F7.6°C 93% Calm Calm -- 30.08 in1018.6 mb - 0.00 in0.0 mm 0.00 in0.0 mm
04:50 AM 47.7°F8.7°C 45.5°F7.5°C 92% Calm Calm -- 30.07 in1018.3 mb - 0.00 in0.0 mm 0.00 in0.0 mm
04:45 AM 47.8°F8.8°C 45.6°F7.6°C 92% Calm Calm -- 30.07 in1018.3 mb - 0.00 in0.0 mm 0.00 in0.0 mm
04:40 AM 47.8°F8.8°C 45.3°F7.4°C 91% Calm Calm -- 30.07 in1018.3 mb - 0.00 in0.0 mm 0.00 in0.0 mm
04:35 AM 48.2°F9.0°C 45.7°F7.6°C 91% Calm Calm -- 30.07 in1018.3 mb - 0.00 in0.0 mm 0.00 in0.0 mm
04:30 AM 48.2°F9.0°C 45.7°F7.6°C 91% Calm Calm -- 30.07 in1018.3 mb - 0.00 in0.0 mm 0.00 in0.0 mm
04:25 AM 48.2°F9.0°C 45.7°F7.6°C 91% Calm Calm -- 30.06 in1017.9 mb - 0.00 in0.0 mm 0.00 in0.0 mm
04:20 AM 48.4°F9.1°C 45.9°F7.7°C 91% Calm Calm -- 30.06 in1017.9 mb - 0.00 in0.0 mm 0.00 in0.0 mm
04:15 AM 48.4°F9.1°C 46.2°F7.9°C 92% Calm Calm -- 30.06 in1017.9 mb - 0.00 in0.0 mm 0.00 in0.0 mm
04:10 AM 48.7°F9.3°C 46.2°F7.9°C 91% Calm Calm -- 30.06 in1017.9 mb - 0.00 in0.0 mm 0.00 in0.0 mm
04:05 AM 48.9°F9.4°C 46.4°F8.0°C 91% Calm Calm -- 30.05 in1017.6 mb - 0.00 in0.0 mm 0.00 in0.0 mm
04:00 AM 48.9°F9.4°C 46.1°F7.8°C 90% Calm Calm -- 30.05 in1017.6 mb - 0.00 in0.0 mm 0.00 in0.0 mm
03:55 AM 49.1°F9.5°C 46.3°F7.9°C 90% Calm Calm -- 30.05 in1017.6 mb - 0.00 in0.0 mm 0.00 in0.0 mm
03:50 AM 49.1°F9.5°C 46.3°F7.9°C 90% Calm Calm -- 30.05 in1017.6 mb - 0.00 in0.0 mm 0.00 in0.0 mm
03:45 AM 49.1°F9.5°C 46.3°F7.9°C 90% Calm Calm -- 30.05 in1017.6 mb - 0.00 in0.0 mm 0.00 in0.0 mm
03:40 AM 49.5°F9.7°C 46.7°F8.2°C 90% Calm Calm -- 30.05 in1017.6 mb - 0.00 in0.0 mm 0.00 in0.0 mm
03:35 AM 49.6°F9.8°C 46.8°F8.2°C 90% Calm Calm -- 30.05 in1017.6 mb - 0.00 in0.0 mm 0.00 in0.0 mm
03:30 AM 49.6°F9.8°C 46.8°F8.2°C 90% Calm Calm -- 30.05 in1017.6 mb - 0.00 in0.0 mm 0.00 in0.0 mm
03:25 AM 49.8°F9.9°C 46.7°F8.2°C 89% Calm Calm -- 30.05 in1017.6 mb - 0.00 in0.0 mm 0.00 in0.0 mm
03:20 AM 49.8°F9.9°C 46.7°F8.2°C 89% Calm Calm -- 30.05 in1017.6 mb - 0.00 in0.0 mm 0.00 in0.0 mm
03:15 AM 50.0°F10.0°C 46.9°F8.3°C 89% Calm Calm -- 30.04 in1017.3 mb - 0.00 in0.0 mm 0.00 in0.0 mm
03:10 AM 50.0°F10.0°C 46.9°F8.3°C 89% Calm Calm -- 30.04 in1017.3 mb - 0.00 in0.0 mm 0.00 in0.0 mm
03:05 AM 50.2°F10.1°C 47.1°F8.4°C 89% Calm Calm -- 30.04 in1017.3 mb - 0.00 in0.0 mm 0.00 in0.0 mm
03:00 AM 50.2°F10.1°C 47.4°F8.6°C 90% Calm Calm -- 30.04 in1017.3 mb - 0.00 in0.0 mm 0.00 in0.0 mm
02:55 AM 50.4°F10.2°C 47.6°F8.7°C 90% Calm Calm -- 30.04 in1017.3 mb - 0.00 in0.0 mm 0.00 in0.0 mm
02:50 AM 50.5°F10.3°C 47.7°F8.7°C 90% Calm Calm -- 30.04 in1017.3 mb - 0.00 in0.0 mm 0.00 in0.0 mm
02:45 AM 50.5°F10.3°C 47.7°F8.7°C 90% Calm Calm -- 30.04 in1017.3 mb - 0.00 in0.0 mm 0.00 in0.0 mm
02:40 AM 50.7°F10.4°C 47.9°F8.8°C 90% Calm Calm -- 30.03 in1016.9 mb - 0.00 in0.0 mm 0.00 in0.0 mm
02:35 AM 51.1°F10.6°C 48.3°F9.1°C 90% Calm Calm -- 30.03 in1016.9 mb - 0.00 in0.0 mm 0.00 in0.0 mm
02:30 AM 51.3°F10.7°C 48.2°F9.0°C 89% Calm Calm -- 30.03 in1016.9 mb - 0.00 in0.0 mm 0.00 in0.0 mm
02:25 AM 51.3°F10.7°C 47.9°F8.8°C 88% Calm Calm -- 30.03 in1016.9 mb - 0.00 in0.0 mm 0.00 in0.0 mm
02:20 AM 51.6°F10.9°C 48.2°F9.0°C 88% Calm Calm -- 30.03 in1016.9 mb - 0.00 in0.0 mm 0.00 in0.0 mm
02:15 AM 52.0°F11.1°C 48.6°F9.2°C 88% Calm Calm -- 30.03 in1016.9 mb - 0.00 in0.0 mm 0.00 in0.0 mm
02:10 AM 52.2°F11.2°C 48.4°F9.1°C 87% Calm Calm -- 30.03 in1016.9 mb - 0.00 in0.0 mm 0.00 in0.0 mm
02:05 AM 52.3°F11.3°C 48.9°F9.4°C 88% Calm Calm -- 30.03 in1016.9 mb - 0.00 in0.0 mm 0.00 in0.0 mm
02:00 AM 52.4°F11.3°C 49.3°F9.6°C 89% Calm Calm -- 30.03 in1016.9 mb - 0.00 in0.0 mm 0.00 in0.0 mm
01:55 AM 52.5°F11.4°C 49.7°F9.8°C 90% Calm Calm -- 30.03 in1016.9 mb - 0.00 in0.0 mm 0.00 in0.0 mm
01:50 AM 52.9°F11.6°C 49.7°F9.8°C 89% Calm Calm -- 30.03 in1016.9 mb - 0.00 in0.0 mm 0.00 in0.0 mm
01:45 AM 53.2°F11.8°C 50.0°F10.0°C 89% Calm Calm -- 30.03 in1016.9 mb - 0.00 in0.0 mm 0.00 in0.0 mm
01:40 AM 53.4°F11.9°C 50.2°F10.1°C 89% Calm Calm -- 30.03 in1016.9 mb - 0.00 in0.0 mm 0.00 in0.0 mm
01:35 AM 53.4°F11.9°C 50.2°F10.1°C 89% Calm Calm -- 30.03 in1016.9 mb - 0.00 in0.0 mm 0.00 in0.0 mm
01:30 AM 53.7°F12.1°C 50.3°F10.2°C 88% Calm Calm -- 30.03 in1016.9 mb - 0.00 in0.0 mm 0.00 in0.0 mm
01:25 AM 53.8°F12.1°C 50.3°F10.2°C 88% Calm Calm -- 30.03 in1016.9 mb - 0.00 in0.0 mm 0.00 in0.0 mm
01:20 AM 54.1°F12.3°C 50.6°F10.3°C 88% Calm Calm -- 30.03 in1016.9 mb - 0.00 in0.0 mm 0.00 in0.0 mm
01:15 AM 54.3°F12.4°C 50.8°F10.4°C 88% Calm Calm -- 30.03 in1016.9 mb - 0.00 in0.0 mm 0.00 in0.0 mm
01:10 AM 54.4°F12.4°C 50.9°F10.5°C 88% Calm Calm -- 30.03 in1016.9 mb - 0.00 in0.0 mm 0.00 in0.0 mm
01:05 AM 54.5°F12.5°C 51.0°F10.6°C 88% Calm Calm -- 30.03 in1016.9 mb - 0.00 in0.0 mm 0.00 in0.0 mm
01:00 AM 54.3°F12.4°C 50.8°F10.4°C 88% Calm Calm -- 30.02 in1016.6 mb - 0.00 in0.0 mm 0.00 in0.0 mm
12:55 AM 54.5°F12.5°C 51.0°F10.6°C 88% Calm Calm -- 30.02 in1016.6 mb - 0.00 in0.0 mm 0.00 in0.0 mm
12:50 AM 54.3°F12.4°C 50.8°F10.4°C 88% Calm Calm -- 30.02 in1016.6 mb - 0.00 in0.0 mm 0.00 in0.0 mm
12:45 AM 54.3°F12.4°C 50.5°F10.3°C 87% Calm Calm -- 30.02 in1016.6 mb - 0.00 in0.0 mm 0.00 in0.0 mm
12:40 AM 54.7°F12.6°C 50.9°F10.5°C 87% Calm Calm -- 30.01 in1016.3 mb - 0.00 in0.0 mm 0.00 in0.0 mm
12:35 AM 54.7°F12.6°C 50.9°F10.5°C 87% Calm Calm -- 30.01 in1016.3 mb - 0.00 in0.0 mm 0.00 in0.0 mm
12:30 AM 54.5°F12.5°C 50.7°F10.4°C 87% Calm Calm -- 30.01 in1016.3 mb - 0.00 in0.0 mm 0.00 in0.0 mm
12:25 AM 54.5°F12.5°C 50.7°F10.4°C 87% Calm Calm -- 30.01 in1016.3 mb - 0.00 in0.0 mm 0.00 in0.0 mm
12:20 AM 54.6°F12.6°C 50.8°F10.4°C 87% Calm Calm -- 30.01 in1016.3 mb - 0.00 in0.0 mm 0.00 in0.0 mm
12:15 AM 54.7°F12.6°C 51.2°F10.7°C 88% Calm Calm -- 30.01 in1016.3 mb - 0.00 in0.0 mm 0.00 in0.0 mm
12:10 AM 54.3°F12.4°C 50.8°F10.4°C 88% Calm Calm -- 30.01 in1016.3 mb - 0.00 in0.0 mm 0.00 in0.0 mm
12:05 AM 54.3°F12.4°C 51.1°F10.6°C 89% Calm Calm -- 30.00 in1015.9 mb - 0.00 in0.0 mm 0.00 in0.0 mm
12:00 AM 54.1°F12.3°C 51.2°F10.7°C 90% Calm Calm -- 30.00 in1015.9 mb - 0.00 in0.0 mm 0.00 in0.0 mm